sensor_id;sensor_type;location;lat;lon;timestamp;P1;durP1;ratioP1;P2;durP2;ratioP2
73850;SDS011;62190;51.548;5.688;2022-08-19T00:01:31;64.22;;;41.95;;
73850;SDS011;62190;51.548;5.688;2022-08-19T00:04:01;66.87;;;41.80;;
73850;SDS011;62190;51.548;5.688;2022-08-19T00:06:33;60.28;;;41.13;;
73850;SDS011;62190;51.548;5.688;2022-08-19T00:09:03;65.47;;;42.73;;
73850;SDS011;62190;51.548;5.688;2022-08-19T00:11:31;58.75;;;38.67;;
73850;SDS011;62190;51.548;5.688;2022-08-19T00:14:03;56.45;;;38.50;;
73850;SDS011;62190;51.548;5.688;2022-08-19T00:16:35;60.33;;;40.12;;
73850;SDS011;62190;51.548;5.688;2022-08-19T00:19:06;59.67;;;38.92;;
73850;SDS011;62190;51.548;5.688;2022-08-19T00:21:35;103.02;;;52.55;;
73850;SDS011;62190;51.548;5.688;2022-08-19T00:24:05;175.75;;;76.77;;
73850;SDS011;62190;51.548;5.688;2022-08-19T00:26:35;135.20;;;67.20;;
73850;SDS011;62190;51.548;5.688;2022-08-19T00:29:09;171.25;;;77.12;;
73850;SDS011;62190;51.548;5.688;2022-08-19T00:31:37;122.42;;;61.58;;
73850;SDS011;62190;51.548;5.688;2022-08-19T00:34:07;79.20;;;46.40;;
73850;SDS011;62190;51.548;5.688;2022-08-19T00:36:35;80.72;;;46.65;;
73850;SDS011;62190;51.548;5.688;2022-08-19T00:39:04;92.62;;;52.73;;
73850;SDS011;62190;51.548;5.688;2022-08-19T00:41:33;79.17;;;46.90;;
73850;SDS011;62190;51.548;5.688;2022-08-19T00:46:33;88.33;;;49.38;;
73850;SDS011;62190;51.548;5.688;2022-08-19T00:51:33;82.95;;;48.48;;
73850;SDS011;62190;51.548;5.688;2022-08-19T00:54:02;84.60;;;49.00;;
73850;SDS011;62190;51.548;5.688;2022-08-19T00:56:32;82.88;;;48.23;;
73850;SDS011;62190;51.548;5.688;2022-08-19T00:59:00;134.70;;;63.90;;
73850;SDS011;62190;51.548;5.688;2022-08-19T01:01:28;152.72;;;65.85;;
73850;SDS011;62190;51.548;5.688;2022-08-19T01:03:56;169.80;;;69.77;;
73850;SDS011;62190;51.548;5.688;2022-08-19T01:06:25;203.45;;;75.08;;
73850;SDS011;62190;51.548;5.688;2022-08-19T01:08:54;113.65;;;56.65;;
73850;SDS011;62190;51.548;5.688;2022-08-19T01:11:22;105.55;;;54.45;;
73850;SDS011;62190;51.548;5.688;2022-08-19T01:13:50;103.05;;;53.15;;
73850;SDS011;62190;51.548;5.688;2022-08-19T01:16:22;95.83;;;53.50;;
73850;SDS011;62190;51.548;5.688;2022-08-19T01:18:50;118.50;;;53.20;;
73850;SDS011;62190;51.548;5.688;2022-08-19T01:21:21;96.60;;;49.65;;
73850;SDS011;62190;51.548;5.688;2022-08-19T01:24:02;116.22;;;51.95;;
73850;SDS011;62190;51.548;5.688;2022-08-19T01:26:31;120.77;;;53.63;;
73850;SDS011;62190;51.548;5.688;2022-08-19T01:29:02;114.22;;;54.35;;
73850;SDS011;62190;51.548;5.688;2022-08-19T01:31:31;118.33;;;53.83;;
73850;SDS011;62190;51.548;5.688;2022-08-19T01:33:59;113.03;;;51.02;;
73850;SDS011;62190;51.548;5.688;2022-08-19T01:36:29;97.02;;;48.25;;
73850;SDS011;62190;51.548;5.688;2022-08-19T01:38:58;128.68;;;54.65;;
73850;SDS011;62190;51.548;5.688;2022-08-19T01:41:30;97.33;;;51.80;;
73850;SDS011;62190;51.548;5.688;2022-08-19T01:43:57;95.15;;;51.40;;
73850;SDS011;62190;51.548;5.688;2022-08-19T01:46:26;89.67;;;48.95;;
73850;SDS011;62190;51.548;5.688;2022-08-19T01:48:54;91.60;;;47.60;;
73850;SDS011;62190;51.548;5.688;2022-08-19T01:51:22;157.57;;;62.67;;
73850;SDS011;62190;51.548;5.688;2022-08-19T01:53:50;180.67;;;68.67;;
73850;SDS011;62190;51.548;5.688;2022-08-19T01:56:20;157.43;;;66.87;;
73850;SDS011;62190;51.548;5.688;2022-08-19T01:58:49;173.05;;;68.25;;
73850;SDS011;62190;51.548;5.688;2022-08-19T02:01:20;141.88;;;61.00;;
73850;SDS011;62190;51.548;5.688;2022-08-19T02:03:48;192.13;;;76.85;;
73850;SDS011;62190;51.548;5.688;2022-08-19T02:06:17;111.45;;;53.42;;
73850;SDS011;62190;51.548;5.688;2022-08-19T02:08:48;120.17;;;54.25;;
73850;SDS011;62190;51.548;5.688;2022-08-19T02:11:19;90.05;;;48.13;;
73850;SDS011;62190;51.548;5.688;2022-08-19T02:13:50;76.92;;;41.30;;
73850;SDS011;62190;51.548;5.688;2022-08-19T02:16:18;78.83;;;41.73;;
73850;SDS011;62190;51.548;5.688;2022-08-19T02:18:46;71.77;;;40.08;;
73850;SDS011;62190;51.548;5.688;2022-08-19T02:21:14;83.70;;;40.17;;
73850;SDS011;62190;51.548;5.688;2022-08-19T02:23:45;104.15;;;46.23;;
73850;SDS011;62190;51.548;5.688;2022-08-19T02:26:14;118.62;;;50.17;;
73850;SDS011;62190;51.548;5.688;2022-08-19T02:28:43;121.85;;;53.10;;
73850;SDS011;62190;51.548;5.688;2022-08-19T02:31:11;133.70;;;57.43;;
73850;SDS011;62190;51.548;5.688;2022-08-19T02:33:43;76.53;;;39.78;;
73850;SDS011;62190;51.548;5.688;2022-08-19T02:36:14;104.20;;;46.60;;
73850;SDS011;62190;51.548;5.688;2022-08-19T02:38:43;142.40;;;57.75;;
73850;SDS011;62190;51.548;5.688;2022-08-19T02:41:18;125.80;;;52.67;;
73850;SDS011;62190;51.548;5.688;2022-08-19T02:43:43;111.05;;;51.53;;
73850;SDS011;62190;51.548;5.688;2022-08-19T02:46:19;139.80;;;56.50;;
73850;SDS011;62190;51.548;5.688;2022-08-19T02:48:48;141.20;;;56.55;;
73850;SDS011;62190;51.548;5.688;2022-08-19T02:51:22;166.30;;;61.48;;
73850;SDS011;62190;51.548;5.688;2022-08-19T02:53:50;121.28;;;49.67;;
73850;SDS011;62190;51.548;5.688;2022-08-19T02:56:19;84.87;;;42.43;;
73850;SDS011;62190;51.548;5.688;2022-08-19T02:58:50;100.10;;;42.08;;
73850;SDS011;62190;51.548;5.688;2022-08-19T03:01:26;78.87;;;42.20;;
73850;SDS011;62190;51.548;5.688;2022-08-19T03:03:54;66.22;;;39.05;;
73850;SDS011;62190;51.548;5.688;2022-08-19T03:06:22;65.20;;;36.20;;
73850;SDS011;62190;51.548;5.688;2022-08-19T03:08:51;83.85;;;39.15;;
73850;SDS011;62190;51.548;5.688;2022-08-19T03:11:26;74.07;;;36.10;;
73850;SDS011;62190;51.548;5.688;2022-08-19T03:14:13;74.00;;;37.70;;
73850;SDS011;62190;51.548;5.688;2022-08-19T03:16:46;88.37;;;41.88;;
73850;SDS011;62190;51.548;5.688;2022-08-19T03:19:11;73.33;;;36.85;;
73850;SDS011;62190;51.548;5.688;2022-08-19T03:21:41;67.00;;;34.67;;
73850;SDS011;62190;51.548;5.688;2022-08-19T03:24:10;73.75;;;36.45;;
73850;SDS011;62190;51.548;5.688;2022-08-19T03:26:43;72.45;;;38.42;;
73850;SDS011;62190;51.548;5.688;2022-08-19T03:29:12;63.98;;;31.35;;
73850;SDS011;62190;51.548;5.688;2022-08-19T03:31:40;98.70;;;43.33;;
73850;SDS011;62190;51.548;5.688;2022-08-19T03:34:15;112.88;;;48.23;;
73850;SDS011;62190;51.548;5.688;2022-08-19T03:36:43;123.05;;;50.90;;
73850;SDS011;62190;51.548;5.688;2022-08-19T03:39:11;143.78;;;51.35;;
73850;SDS011;62190;51.548;5.688;2022-08-19T03:41:40;73.12;;;37.10;;
73850;SDS011;62190;51.548;5.688;2022-08-19T03:44:08;155.78;;;55.23;;
73850;SDS011;62190;51.548;5.688;2022-08-19T03:46:36;155.63;;;56.20;;
73850;SDS011;62190;51.548;5.688;2022-08-19T03:49:04;87.35;;;42.27;;
73850;SDS011;62190;51.548;5.688;2022-08-19T03:51:35;107.17;;;45.80;;
73850;SDS011;62190;51.548;5.688;2022-08-19T03:54:05;98.05;;;39.80;;
73850;SDS011;62190;51.548;5.688;2022-08-19T03:56:35;146.28;;;52.80;;
73850;SDS011;62190;51.548;5.688;2022-08-19T03:59:05;119.97;;;45.17;;
73850;SDS011;62190;51.548;5.688;2022-08-19T04:01:35;191.35;;;61.92;;
73850;SDS011;62190;51.548;5.688;2022-08-19T04:04:02;93.87;;;42.90;;
73850;SDS011;62190;51.548;5.688;2022-08-19T04:06:31;98.00;;;45.20;;
73850;SDS011;62190;51.548;5.688;2022-08-19T04:09:01;127.80;;;46.73;;
73850;SDS011;62190;51.548;5.688;2022-08-19T04:11:35;83.80;;;39.10;;
73850;SDS011;62190;51.548;5.688;2022-08-19T04:16:33;112.10;;;46.10;;
73850;SDS011;62190;51.548;5.688;2022-08-19T04:19:01;85.35;;;40.30;;
73850;SDS011;62190;51.548;5.688;2022-08-19T04:21:30;106.10;;;44.98;;
73850;SDS011;62190;51.548;5.688;2022-08-19T04:23:59;74.10;;;36.40;;
73850;SDS011;62190;51.548;5.688;2022-08-19T04:26:27;80.70;;;39.63;;
73850;SDS011;62190;51.548;5.688;2022-08-19T04:29:07;99.62;;;42.55;;
73850;SDS011;62190;51.548;5.688;2022-08-19T04:31:36;115.50;;;45.35;;
73850;SDS011;62190;51.548;5.688;2022-08-19T04:34:04;73.75;;;37.58;;
73850;SDS011;62190;51.548;5.688;2022-08-19T04:36:34;77.08;;;36.65;;
73850;SDS011;62190;51.548;5.688;2022-08-19T04:39:08;72.30;;;33.53;;
73850;SDS011;62190;51.548;5.688;2022-08-19T04:41:38;83.00;;;38.45;;
73850;SDS011;62190;51.548;5.688;2022-08-19T04:44:23;80.38;;;38.02;;
73850;SDS011;62190;51.548;5.688;2022-08-19T04:46:51;88.90;;;41.30;;
73850;SDS011;62190;51.548;5.688;2022-08-19T04:49:20;102.12;;;40.28;;
73850;SDS011;62190;51.548;5.688;2022-08-19T04:51:48;83.10;;;39.38;;
73850;SDS011;62190;51.548;5.688;2022-08-19T04:54:20;83.22;;;40.70;;
73850;SDS011;62190;51.548;5.688;2022-08-19T04:56:48;90.12;;;40.70;;
73850;SDS011;62190;51.548;5.688;2022-08-19T04:59:17;85.32;;;41.37;;
73850;SDS011;62190;51.548;5.688;2022-08-19T05:01:46;71.50;;;37.20;;
73850;SDS011;62190;51.548;5.688;2022-08-19T05:04:16;83.25;;;40.28;;
73850;SDS011;62190;51.548;5.688;2022-08-19T05:06:45;115.82;;;50.40;;
73850;SDS011;62190;51.548;5.688;2022-08-19T05:09:14;134.27;;;52.48;;
73850;SDS011;62190;51.548;5.688;2022-08-19T05:11:42;125.67;;;51.55;;
73850;SDS011;62190;51.548;5.688;2022-08-19T05:14:10;149.75;;;57.25;;
73850;SDS011;62190;51.548;5.688;2022-08-19T05:16:39;109.90;;;49.42;;
73850;SDS011;62190;51.548;5.688;2022-08-19T05:19:07;169.68;;;65.78;;
73850;SDS011;62190;51.548;5.688;2022-08-19T05:21:53;109.85;;;53.42;;
73850;SDS011;62190;51.548;5.688;2022-08-19T05:24:39;148.10;;;58.75;;
73850;SDS011;62190;51.548;5.688;2022-08-19T05:27:07;106.90;;;52.67;;
73850;SDS011;62190;51.548;5.688;2022-08-19T05:29:34;89.40;;;47.70;;
73850;SDS011;62190;51.548;5.688;2022-08-19T05:32:03;96.10;;;46.18;;
73850;SDS011;62190;51.548;5.688;2022-08-19T05:34:32;102.53;;;50.03;;
73850;SDS011;62190;51.548;5.688;2022-08-19T05:37:02;97.55;;;51.13;;
73850;SDS011;62190;51.548;5.688;2022-08-19T05:39:31;60.12;;;36.60;;
73850;SDS011;62190;51.548;5.688;2022-08-19T05:42:01;64.12;;;39.65;;
73850;SDS011;62190;51.548;5.688;2022-08-19T05:44:31;66.92;;;40.75;;
73850;SDS011;62190;51.548;5.688;2022-08-19T05:47:02;50.10;;;34.30;;
73850;SDS011;62190;51.548;5.688;2022-08-19T05:49:31;50.60;;;34.20;;
73850;SDS011;62190;51.548;5.688;2022-08-19T05:52:09;53.55;;;35.17;;
73850;SDS011;62190;51.548;5.688;2022-08-19T05:54:33;51.55;;;33.18;;
73850;SDS011;62190;51.548;5.688;2022-08-19T05:57:01;51.13;;;33.98;;
73850;SDS011;62190;51.548;5.688;2022-08-19T05:59:28;55.73;;;37.60;;
73850;SDS011;62190;51.548;5.688;2022-08-19T06:01:56;64.77;;;41.37;;
73850;SDS011;62190;51.548;5.688;2022-08-19T06:04:23;68.20;;;44.48;;
73850;SDS011;62190;51.548;5.688;2022-08-19T06:06:51;69.00;;;42.60;;
73850;SDS011;62190;51.548;5.688;2022-08-19T06:09:19;66.75;;;42.80;;
73850;SDS011;62190;51.548;5.688;2022-08-19T06:11:55;68.95;;;43.08;;
73850;SDS011;62190;51.548;5.688;2022-08-19T06:14:26;67.20;;;43.75;;
73850;SDS011;62190;51.548;5.688;2022-08-19T06:16:55;72.00;;;44.30;;
73850;SDS011;62190;51.548;5.688;2022-08-19T06:19:22;64.40;;;42.13;;
73850;SDS011;62190;51.548;5.688;2022-08-19T06:21:54;66.72;;;43.75;;
73850;SDS011;62190;51.548;5.688;2022-08-19T06:24:22;63.30;;;42.80;;
73850;SDS011;62190;51.548;5.688;2022-08-19T06:26:51;66.10;;;44.00;;
73850;SDS011;62190;51.548;5.688;2022-08-19T06:29:21;61.25;;;40.98;;
73850;SDS011;62190;51.548;5.688;2022-08-19T06:31:51;63.45;;;42.40;;
73850;SDS011;62190;51.548;5.688;2022-08-19T06:34:23;60.73;;;41.60;;
73850;SDS011;62190;51.548;5.688;2022-08-19T06:36:51;59.58;;;39.75;;
73850;SDS011;62190;51.548;5.688;2022-08-19T06:39:24;54.30;;;39.60;;
73850;SDS011;62190;51.548;5.688;2022-08-19T06:41:55;55.43;;;37.55;;
73850;SDS011;62190;51.548;5.688;2022-08-19T06:44:24;55.50;;;37.88;;
73850;SDS011;62190;51.548;5.688;2022-08-19T06:46:54;52.35;;;36.25;;
73850;SDS011;62190;51.548;5.688;2022-08-19T06:49:22;48.80;;;33.90;;
73850;SDS011;62190;51.548;5.688;2022-08-19T06:51:51;45.60;;;33.15;;
73850;SDS011;62190;51.548;5.688;2022-08-19T06:54:18;50.00;;;33.30;;
73850;SDS011;62190;51.548;5.688;2022-08-19T06:56:47;43.73;;;30.90;;
73850;SDS011;62190;51.548;5.688;2022-08-19T06:59:19;43.58;;;31.00;;
73850;SDS011;62190;51.548;5.688;2022-08-19T07:01:49;47.58;;;31.65;;
73850;SDS011;62190;51.548;5.688;2022-08-19T07:04:19;43.10;;;29.63;;
73850;SDS011;62190;51.548;5.688;2022-08-19T07:06:50;41.80;;;29.65;;
73850;SDS011;62190;51.548;5.688;2022-08-19T07:09:19;40.15;;;28.77;;
73850;SDS011;62190;51.548;5.688;2022-08-19T07:11:47;41.18;;;29.18;;
73850;SDS011;62190;51.548;5.688;2022-08-19T07:14:15;38.00;;;27.62;;
73850;SDS011;62190;51.548;5.688;2022-08-19T07:16:45;36.93;;;25.48;;
73850;SDS011;62190;51.548;5.688;2022-08-19T07:19:13;36.30;;;26.52;;
73850;SDS011;62190;51.548;5.688;2022-08-19T07:21:41;36.45;;;24.30;;
73850;SDS011;62190;51.548;5.688;2022-08-19T07:24:11;36.48;;;26.05;;
73850;SDS011;62190;51.548;5.688;2022-08-19T07:26:39;35.60;;;24.82;;
73850;SDS011;62190;51.548;5.688;2022-08-19T07:29:07;35.30;;;23.98;;
73850;SDS011;62190;51.548;5.688;2022-08-19T07:31:37;33.38;;;24.77;;
73850;SDS011;62190;51.548;5.688;2022-08-19T07:34:06;32.23;;;24.10;;
73850;SDS011;62190;51.548;5.688;2022-08-19T07:36:35;29.52;;;22.45;;
73850;SDS011;62190;51.548;5.688;2022-08-19T07:39:06;28.85;;;21.80;;
73850;SDS011;62190;51.548;5.688;2022-08-19T07:41:37;27.15;;;20.80;;
73850;SDS011;62190;51.548;5.688;2022-08-19T07:44:05;30.57;;;22.05;;
73850;SDS011;62190;51.548;5.688;2022-08-19T07:46:36;30.62;;;21.73;;
73850;SDS011;62190;51.548;5.688;2022-08-19T07:49:06;27.32;;;19.92;;
73850;SDS011;62190;51.548;5.688;2022-08-19T07:51:35;26.75;;;20.75;;
73850;SDS011;62190;51.548;5.688;2022-08-19T07:54:04;25.60;;;18.85;;
73850;SDS011;62190;51.548;5.688;2022-08-19T07:56:31;24.15;;;17.75;;
73850;SDS011;62190;51.548;5.688;2022-08-19T07:58:59;27.20;;;18.73;;
73850;SDS011;62190;51.548;5.688;2022-08-19T08:01:27;27.95;;;19.37;;
73850;SDS011;62190;51.548;5.688;2022-08-19T08:03:55;23.35;;;17.77;;
73850;SDS011;62190;51.548;5.688;2022-08-19T08:06:41;26.42;;;19.40;;
73850;SDS011;62190;51.548;5.688;2022-08-19T08:09:29;23.15;;;17.30;;
73850;SDS011;62190;51.548;5.688;2022-08-19T08:12:02;27.13;;;18.52;;
73850;SDS011;62190;51.548;5.688;2022-08-19T08:14:41;24.72;;;18.10;;
73850;SDS011;62190;51.548;5.688;2022-08-19T08:17:10;28.47;;;17.80;;
73850;SDS011;62190;51.548;5.688;2022-08-19T08:19:40;24.65;;;17.70;;
73850;SDS011;62190;51.548;5.688;2022-08-19T08:22:07;23.60;;;17.55;;
73850;SDS011;62190;51.548;5.688;2022-08-19T08:24:37;25.43;;;17.42;;
73850;SDS011;62190;51.548;5.688;2022-08-19T08:27:04;27.52;;;17.12;;
73850;SDS011;62190;51.548;5.688;2022-08-19T08:29:32;23.20;;;16.62;;
73850;SDS011;62190;51.548;5.688;2022-08-19T08:31:59;21.73;;;16.15;;
73850;SDS011;62190;51.548;5.688;2022-08-19T08:34:27;24.05;;;16.30;;
73850;SDS011;62190;51.548;5.688;2022-08-19T08:36:54;20.68;;;14.43;;
73850;SDS011;62190;51.548;5.688;2022-08-19T08:39:21;22.32;;;16.15;;
73850;SDS011;62190;51.548;5.688;2022-08-19T08:42:01;19.55;;;15.05;;
73850;SDS011;62190;51.548;5.688;2022-08-19T08:44:32;24.43;;;17.02;;
73850;SDS011;62190;51.548;5.688;2022-08-19T08:47:05;22.02;;;16.52;;
73850;SDS011;62190;51.548;5.688;2022-08-19T08:49:41;22.25;;;15.83;;
73850;SDS011;62190;51.548;5.688;2022-08-19T08:52:11;20.40;;;15.32;;
73850;SDS011;62190;51.548;5.688;2022-08-19T08:55:00;20.75;;;17.17;;
73850;SDS011;62190;51.548;5.688;2022-08-19T09:00:23;23.50;;;18.07;;
73850;SDS011;62190;51.548;5.688;2022-08-19T09:02:52;20.82;;;17.45;;
73850;SDS011;62190;51.548;5.688;2022-08-19T09:05:20;20.00;;;15.15;;
73850;SDS011;62190;51.548;5.688;2022-08-19T09:08:02;17.92;;;15.45;;
73850;SDS011;62190;51.548;5.688;2022-08-19T09:10:38;18.17;;;15.23;;
73850;SDS011;62190;51.548;5.688;2022-08-19T09:13:17;16.55;;;13.80;;
73850;SDS011;62190;51.548;5.688;2022-08-19T09:15:49;17.05;;;15.15;;
73850;SDS011;62190;51.548;5.688;2022-08-19T09:18:21;20.82;;;14.13;;
73850;SDS011;62190;51.548;5.688;2022-08-19T09:20:48;20.12;;;15.13;;
73850;SDS011;62190;51.548;5.688;2022-08-19T09:23:15;18.95;;;16.45;;
73850;SDS011;62190;51.548;5.688;2022-08-19T09:25:42;19.37;;;14.95;;
73850;SDS011;62190;51.548;5.688;2022-08-19T09:28:10;20.48;;;16.32;;
73850;SDS011;62190;51.548;5.688;2022-08-19T09:30:40;21.15;;;15.55;;
73850;SDS011;62190;51.548;5.688;2022-08-19T09:35:48;20.77;;;17.65;;
73850;SDS011;62190;51.548;5.688;2022-08-19T09:38:16;23.05;;;18.77;;
73850;SDS011;62190;51.548;5.688;2022-08-19T09:40:43;24.57;;;19.42;;
73850;SDS011;62190;51.548;5.688;2022-08-19T09:43:11;20.30;;;17.95;;
73850;SDS011;62190;51.548;5.688;2022-08-19T09:45:38;22.52;;;20.10;;
73850;SDS011;62190;51.548;5.688;2022-08-19T09:48:07;21.85;;;19.05;;
73850;SDS011;62190;51.548;5.688;2022-08-19T09:50:34;20.62;;;17.95;;
73850;SDS011;62190;51.548;5.688;2022-08-19T09:53:03;20.37;;;18.17;;
73850;SDS011;62190;51.548;5.688;2022-08-19T09:55:33;20.48;;;18.42;;
73850;SDS011;62190;51.548;5.688;2022-08-19T09:58:00;18.32;;;16.20;;
73850;SDS011;62190;51.548;5.688;2022-08-19T10:00:28;21.42;;;19.10;;
73850;SDS011;62190;51.548;5.688;2022-08-19T10:02:57;21.75;;;19.25;;
73850;SDS011;62190;51.548;5.688;2022-08-19T10:05:24;21.95;;;17.62;;
73850;SDS011;62190;51.548;5.688;2022-08-19T10:08:10;20.97;;;17.10;;
73850;SDS011;62190;51.548;5.688;2022-08-19T10:10:37;22.60;;;18.10;;
73850;SDS011;62190;51.548;5.688;2022-08-19T10:13:05;22.37;;;18.48;;
73850;SDS011;62190;51.548;5.688;2022-08-19T10:15:32;19.70;;;15.80;;
73850;SDS011;62190;51.548;5.688;2022-08-19T10:18:03;22.42;;;17.70;;
73850;SDS011;62190;51.548;5.688;2022-08-19T10:20:33;22.95;;;19.05;;
73850;SDS011;62190;51.548;5.688;2022-08-19T10:23:04;24.55;;;18.95;;
73850;SDS011;62190;51.548;5.688;2022-08-19T10:25:31;21.65;;;19.20;;
73850;SDS011;62190;51.548;5.688;2022-08-19T10:28:00;24.10;;;19.20;;
73850;SDS011;62190;51.548;5.688;2022-08-19T10:30:28;24.20;;;19.45;;
73850;SDS011;62190;51.548;5.688;2022-08-19T10:32:55;23.15;;;18.20;;
73850;SDS011;62190;51.548;5.688;2022-08-19T10:35:22;24.40;;;20.02;;
73850;SDS011;62190;51.548;5.688;2022-08-19T10:37:51;21.77;;;18.42;;
73850;SDS011;62190;51.548;5.688;2022-08-19T10:40:19;23.05;;;19.48;;
73850;SDS011;62190;51.548;5.688;2022-08-19T10:42:46;23.73;;;18.85;;
73850;SDS011;62190;51.548;5.688;2022-08-19T10:45:14;21.23;;;18.20;;
73850;SDS011;62190;51.548;5.688;2022-08-19T10:47:42;22.58;;;19.40;;
73850;SDS011;62190;51.548;5.688;2022-08-19T10:50:09;25.25;;;21.05;;
73850;SDS011;62190;51.548;5.688;2022-08-19T10:52:55;23.77;;;20.20;;
73850;SDS011;62190;51.548;5.688;2022-08-19T10:55:23;28.70;;;21.73;;
73850;SDS011;62190;51.548;5.688;2022-08-19T10:58:13;30.97;;;22.15;;
73850;SDS011;62190;51.548;5.688;2022-08-19T11:00:42;25.27;;;19.57;;
73850;SDS011;62190;51.548;5.688;2022-08-19T11:03:09;23.47;;;19.17;;
73850;SDS011;62190;51.548;5.688;2022-08-19T11:05:37;24.98;;;19.55;;
73850;SDS011;62190;51.548;5.688;2022-08-19T11:08:04;26.55;;;18.62;;
73850;SDS011;62190;51.548;5.688;2022-08-19T11:10:33;22.82;;;18.57;;
73850;SDS011;62190;51.548;5.688;2022-08-19T11:13:02;25.55;;;17.15;;
73850;SDS011;62190;51.548;5.688;2022-08-19T11:15:29;19.52;;;16.42;;
73850;SDS011;62190;51.548;5.688;2022-08-19T11:17:58;19.07;;;15.70;;
73850;SDS011;62190;51.548;5.688;2022-08-19T11:20:25;23.35;;;18.40;;
73850;SDS011;62190;51.548;5.688;2022-08-19T11:22:52;22.15;;;17.92;;
73850;SDS011;62190;51.548;5.688;2022-08-19T11:25:20;22.32;;;17.02;;
73850;SDS011;62190;51.548;5.688;2022-08-19T11:27:47;25.68;;;19.42;;
73850;SDS011;62190;51.548;5.688;2022-08-19T11:30:16;22.50;;;18.80;;
73850;SDS011;62190;51.548;5.688;2022-08-19T11:32:44;23.77;;;18.57;;
73850;SDS011;62190;51.548;5.688;2022-08-19T11:35:11;23.40;;;17.73;;
73850;SDS011;62190;51.548;5.688;2022-08-19T11:37:39;23.20;;;18.30;;
73850;SDS011;62190;51.548;5.688;2022-08-19T11:40:07;22.62;;;17.15;;
73850;SDS011;62190;51.548;5.688;2022-08-19T11:42:35;24.40;;;18.57;;
73850;SDS011;62190;51.548;5.688;2022-08-19T11:45:21;23.40;;;17.48;;
73850;SDS011;62190;51.548;5.688;2022-08-19T11:47:49;28.40;;;21.33;;
73850;SDS011;62190;51.548;5.688;2022-08-19T11:50:17;23.85;;;18.07;;
73850;SDS011;62190;51.548;5.688;2022-08-19T11:52:44;28.00;;;19.32;;
73850;SDS011;62190;51.548;5.688;2022-08-19T11:55:13;21.00;;;17.50;;
73850;SDS011;62190;51.548;5.688;2022-08-19T11:57:40;24.60;;;19.67;;
73850;SDS011;62190;51.548;5.688;2022-08-19T12:00:09;21.05;;;15.68;;
73850;SDS011;62190;51.548;5.688;2022-08-19T12:02:38;22.15;;;17.82;;
73850;SDS011;62190;51.548;5.688;2022-08-19T12:05:06;19.65;;;15.30;;
73850;SDS011;62190;51.548;5.688;2022-08-19T12:07:34;23.70;;;19.37;;
73850;SDS011;62190;51.548;5.688;2022-08-19T12:10:01;20.57;;;15.55;;
73850;SDS011;62190;51.548;5.688;2022-08-19T12:12:28;21.50;;;17.05;;
73850;SDS011;62190;51.548;5.688;2022-08-19T12:14:56;20.90;;;15.78;;
73850;SDS011;62190;51.548;5.688;2022-08-19T12:17:24;24.80;;;18.50;;
73850;SDS011;62190;51.548;5.688;2022-08-19T12:19:53;25.12;;;18.17;;
73850;SDS011;62190;51.548;5.688;2022-08-19T12:22:20;22.58;;;18.02;;
73850;SDS011;62190;51.548;5.688;2022-08-19T12:24:48;24.23;;;19.27;;
73850;SDS011;62190;51.548;5.688;2022-08-19T12:27:18;22.27;;;17.37;;
73850;SDS011;62190;51.548;5.688;2022-08-19T12:29:45;25.00;;;19.12;;
73850;SDS011;62190;51.548;5.688;2022-08-19T12:32:12;26.70;;;19.42;;
73850;SDS011;62190;51.548;5.688;2022-08-19T12:34:40;22.75;;;17.98;;
73850;SDS011;62190;51.548;5.688;2022-08-19T12:37:07;22.20;;;16.85;;
73850;SDS011;62190;51.548;5.688;2022-08-19T12:39:37;20.12;;;15.43;;
73850;SDS011;62190;51.548;5.688;2022-08-19T12:42:07;24.47;;;17.48;;
73850;SDS011;62190;51.548;5.688;2022-08-19T12:44:37;22.90;;;16.10;;
73850;SDS011;62190;51.548;5.688;2022-08-19T12:47:05;21.95;;;16.40;;
73850;SDS011;62190;51.548;5.688;2022-08-19T12:49:33;22.98;;;16.62;;
73850;SDS011;62190;51.548;5.688;2022-08-19T12:52:03;18.45;;;15.40;;
73850;SDS011;62190;51.548;5.688;2022-08-19T12:54:31;18.27;;;14.15;;
73850;SDS011;62190;51.548;5.688;2022-08-19T12:56:58;17.52;;;15.30;;
73850;SDS011;62190;51.548;5.688;2022-08-19T12:59:26;22.60;;;16.37;;
73850;SDS011;62190;51.548;5.688;2022-08-19T13:01:53;24.32;;;16.27;;
73850;SDS011;62190;51.548;5.688;2022-08-19T13:04:20;23.52;;;16.37;;
73850;SDS011;62190;51.548;5.688;2022-08-19T13:06:48;20.68;;;16.35;;
73850;SDS011;62190;51.548;5.688;2022-08-19T13:09:15;20.75;;;17.37;;
73850;SDS011;62190;51.548;5.688;2022-08-19T13:11:42;20.08;;;15.45;;
73850;SDS011;62190;51.548;5.688;2022-08-19T13:14:10;22.58;;;17.23;;
73850;SDS011;62190;51.548;5.688;2022-08-19T13:16:37;20.72;;;16.55;;
73850;SDS011;62190;51.548;5.688;2022-08-19T13:19:05;20.00;;;15.40;;
73850;SDS011;62190;51.548;5.688;2022-08-19T13:21:33;21.57;;;17.62;;
73850;SDS011;62190;51.548;5.688;2022-08-19T13:24:00;24.67;;;18.82;;
73850;SDS011;62190;51.548;5.688;2022-08-19T13:26:27;20.68;;;16.48;;
73850;SDS011;62190;51.548;5.688;2022-08-19T13:28:55;23.25;;;18.10;;
73850;SDS011;62190;51.548;5.688;2022-08-19T13:31:40;20.25;;;17.10;;
73850;SDS011;62190;51.548;5.688;2022-08-19T13:34:28;25.40;;;18.15;;
73850;SDS011;62190;51.548;5.688;2022-08-19T13:36:58;20.20;;;16.42;;
73850;SDS011;62190;51.548;5.688;2022-08-19T13:39:27;19.75;;;14.87;;
73850;SDS011;62190;51.548;5.688;2022-08-19T13:41:56;17.32;;;14.45;;
73850;SDS011;62190;51.548;5.688;2022-08-19T13:44:23;22.40;;;16.40;;
73850;SDS011;62190;51.548;5.688;2022-08-19T13:46:50;20.30;;;15.88;;
73850;SDS011;62190;51.548;5.688;2022-08-19T13:49:18;20.88;;;16.65;;
73850;SDS011;62190;51.548;5.688;2022-08-19T13:51:46;19.12;;;15.60;;
73850;SDS011;62190;51.548;5.688;2022-08-19T13:54:13;21.75;;;17.37;;
73850;SDS011;62190;51.548;5.688;2022-08-19T13:56:44;21.75;;;17.50;;
73850;SDS011;62190;51.548;5.688;2022-08-19T13:59:11;21.90;;;17.37;;
73850;SDS011;62190;51.548;5.688;2022-08-19T14:01:39;23.25;;;17.00;;
73850;SDS011;62190;51.548;5.688;2022-08-19T14:04:07;25.92;;;16.77;;
73850;SDS011;62190;51.548;5.688;2022-08-19T14:06:35;20.57;;;15.75;;
73850;SDS011;62190;51.548;5.688;2022-08-19T14:09:02;19.25;;;14.40;;
73850;SDS011;62190;51.548;5.688;2022-08-19T14:11:30;17.07;;;13.13;;
73850;SDS011;62190;51.548;5.688;2022-08-19T14:13:57;18.82;;;14.50;;
73850;SDS011;62190;51.548;5.688;2022-08-19T14:16:25;20.88;;;14.38;;
73850;SDS011;62190;51.548;5.688;2022-08-19T14:18:52;15.95;;;12.15;;
73850;SDS011;62190;51.548;5.688;2022-08-19T14:21:23;16.42;;;11.97;;
73850;SDS011;62190;51.548;5.688;2022-08-19T14:23:50;17.27;;;12.65;;
73850;SDS011;62190;51.548;5.688;2022-08-19T14:26:18;15.15;;;11.48;;
73850;SDS011;62190;51.548;5.688;2022-08-19T14:28:47;16.85;;;10.82;;
73850;SDS011;62190;51.548;5.688;2022-08-19T14:31:15;15.32;;;10.93;;
73850;SDS011;62190;51.548;5.688;2022-08-19T14:33:45;16.97;;;10.65;;
73850;SDS011;62190;51.548;5.688;2022-08-19T14:36:13;15.95;;;11.55;;
73850;SDS011;62190;51.548;5.688;2022-08-19T14:38:41;16.50;;;11.60;;
73850;SDS011;62190;51.548;5.688;2022-08-19T14:41:19;14.03;;;10.18;;
73850;SDS011;62190;51.548;5.688;2022-08-19T14:43:45;14.58;;;10.72;;
73850;SDS011;62190;51.548;5.688;2022-08-19T14:46:14;13.95;;;10.18;;